Time;durP1;ratioP1;P1;durP2;ratioP2;P2;SDS_P1;SDS_P2;PMS_P1;PMS_P2;Temp;Humidity;BMP_temperature;BMP_pressure;BME280_temperature;BME280_humidity;BME280_pressure;Samples;Min_cycle;Max_cycle;Signal;HPM_P1;HPM_P2
2021/12/24 00:00:18;;;;;;;8.70;7.90;;;;;;;;;;5073245;28;20441;-56
2021/12/24 00:02:44;;;;;;;10.30;8.80;;;;;;;;;;5072955;28;20441;-56
2021/12/24 00:05:10;;;;;;;8.93;8.07;;;;;;;;;;5072710;28;20457;-56
2021/12/24 00:07:36;;;;;;;9.07;7.90;;;;;;;;;;5072755;28;20500;-55
2021/12/24 00:10:03;;;;;;;9.27;8.37;;;;;;;;;;5072426;28;20511;-56
2021/12/24 00:12:33;;;;;;;8.40;7.60;;;;;;;;;;5072576;28;20442;-56
2021/12/24 00:15:04;;;;;;;7.97;7.17;;;;;;;;;;5072777;28;20444;-56
2021/12/24 00:17:34;;;;;;;8.50;7.70;;;;;;;;;;5073104;28;20454;-55
2021/12/24 00:20:37;;;;;;;8.43;7.53;;;;;;;;;;5072671;28;20954;-55
2021/12/24 00:23:27;;;;;;;8.63;7.83;;;;;;;;;;5072722;28;20448;-55
2021/12/24 00:36:47;;;;;;;9.33;7.67;;;;;;;;;;5072503;28;20438;-56
2021/12/24 00:39:13;;;;;;;8.53;7.73;;;;;;;;;;5072548;28;20434;-56
2021/12/24 00:41:39;;;;;;;8.73;7.83;;;;;;;;;;5071630;28;20239;-56
2021/12/24 00:44:05;;;;;;;9.57;8.57;;;;;;;;;;5072601;28;20202;-56
2021/12/24 00:46:33;;;;;;;9.27;8.37;;;;;;;;;;5072571;28;20442;-56
2021/12/24 00:49:01;;;;;;;9.53;8.63;;;;;;;;;;5072327;28;20466;-56
2021/12/24 00:51:54;;;;;;;9.90;8.97;;;;;;;;;;5071027;28;20483;-56
2021/12/24 00:57:16;;;;;;;9.70;8.70;;;;;;;;;;5049041;28;20794;-55
2021/12/24 00:59:42;;;;;;;9.10;7.90;;;;;;;;;;5072064;28;20430;-55
2021/12/24 01:02:08;;;;;;;9.70;8.70;;;;;;;;;;5072136;28;20269;-55
2021/12/24 01:04:34;;;;;;;9.50;8.50;;;;;;;;;;5072067;28;20230;-55
2021/12/24 01:07:01;;;;;;;10.07;9.00;;;;;;;;;;5071929;28;20200;-54
2021/12/24 01:09:27;;;;;;;9.87;8.87;;;;;;;;;;5072111;28;20226;-55
2021/12/24 01:11:53;;;;;;;9.90;8.93;;;;;;;;;;5072161;28;20434;-55
2021/12/24 01:14:21;;;;;;;10.97;9.20;;;;;;;;;;5072191;28;20753;-56
2021/12/24 01:17:01;;;;;;;10.07;9.10;;;;;;;;;;5071963;28;20199;-56
2021/12/24 01:19:27;;;;;;;9.07;8.23;;;;;;;;;;5071967;28;20441;-56
2021/12/24 01:22:48;;;;;;;9.83;8.83;;;;;;;;;;5071671;28;21001;-56
2021/12/24 01:25:29;;;;;;;9.03;8.13;;;;;;;;;;5074478;28;20437;-56
2021/12/24 01:38:19;;;;;;;9.63;8.23;;;;;;;;;;5075723;28;20472;-56
2021/12/24 01:41:05;;;;;;;9.40;8.03;;;;;;;;;;5075706;28;20799;-56
2021/12/24 01:43:31;;;;;;;9.20;8.23;;;;;;;;;;5075860;28;20441;-56
2021/12/24 01:45:59;;;;;;;9.17;8.17;;;;;;;;;;5075611;28;20425;-56
2021/12/24 01:48:25;;;;;;;9.23;8.20;;;;;;;;;;5075750;28;20195;-56
2021/12/24 01:50:52;;;;;;;9.27;8.40;;;;;;;;;;5075546;28;20438;-56
2021/12/24 01:53:20;;;;;;;9.10;8.20;;;;;;;;;;5075383;28;20440;-55
2021/12/24 01:55:48;;;;;;;9.30;8.30;;;;;;;;;;5075653;28;20966;-56
2021/12/24 01:58:17;;;;;;;9.00;8.10;;;;;;;;;;5075632;28;20438;-56
2021/12/24 02:00:46;;;;;;;9.63;8.63;;;;;;;;;;5075505;28;20512;-56
2021/12/24 02:03:12;;;;;;;8.93;7.93;;;;;;;;;;5075383;28;20845;-56
2021/12/24 02:05:38;;;;;;;9.10;8.20;;;;;;;;;;5075425;28;20556;-56
2021/12/24 02:08:05;;;;;;;9.17;8.00;;;;;;;;;;5075300;28;20844;-57
2021/12/24 02:10:31;;;;;;;8.43;7.63;;;;;;;;;;5075498;28;20503;-56
2021/12/24 02:12:58;;;;;;;7.73;7.03;;;;;;;;;;5075261;28;20528;-55
2021/12/24 02:15:58;;;;;;;9.43;7.57;;;;;;;;;;5075322;28;20430;-55
2021/12/24 02:29:27;;;;;;;8.60;7.67;;;;;;;;;;5074918;28;20479;-56
2021/12/24 02:31:53;;;;;;;9.30;8.40;;;;;;;;;;5074679;28;20562;-55
2021/12/24 02:34:19;;;;;;;10.00;8.07;;;;;;;;;;5074638;28;20200;-55
2021/12/24 02:36:46;;;;;;;9.23;8.20;;;;;;;;;;5074819;28;20287;-56
2021/12/24 02:39:12;;;;;;;9.57;8.50;;;;;;;;;;5074595;28;20442;-55
2021/12/24 02:41:38;;;;;;;9.17;8.27;;;;;;;;;;5074126;28;20477;-55
2021/12/24 02:44:05;;;;;;;8.33;7.53;;;;;;;;;;5074477;28;20210;-55
2021/12/24 02:46:40;;;;;;;8.77;7.87;;;;;;;;;;5074600;28;20433;-55
2021/12/24 02:49:16;;;;;;;8.40;7.57;;;;;;;;;;5074500;28;20473;-55
2021/12/24 02:54:28;;;;;;;9.60;8.60;;;;;;;;;;5074286;28;20421;-56
2021/12/24 02:56:59;;;;;;;9.37;8.37;;;;;;;;;;5074377;28;20474;-55
2021/12/24 02:59:26;;;;;;;9.30;8.30;;;;;;;;;;5074406;28;20429;-57
2021/12/24 03:01:54;;;;;;;9.70;8.70;;;;;;;;;;5074332;28;20481;-57
2021/12/24 03:04:20;;;;;;;9.60;8.50;;;;;;;;;;5074249;28;20482;-56
2021/12/24 03:06:47;;;;;;;9.77;8.50;;;;;;;;;;5074248;28;20515;-56
2021/12/24 03:09:16;;;;;;;9.97;8.97;;;;;;;;;;5074166;28;20233;-57
2021/12/24 03:11:44;;;;;;;10.70;9.37;;;;;;;;;;5074268;28;20210;-60
2021/12/24 03:14:10;;;;;;;9.87;8.80;;;;;;;;;;5073953;28;20261;-56
2021/12/24 03:16:37;;;;;;;11.37;10.17;;;;;;;;;;5074163;28;20840;-57
2021/12/24 03:19:04;;;;;;;10.53;9.47;;;;;;;;;;5074008;28;20438;-57
2021/12/24 03:21:38;;;;;;;11.10;9.90;;;;;;;;;;5074130;28;20466;-57
2021/12/24 03:26:30;;;;;;;11.70;10.50;;;;;;;;;;5073863;28;20528;-56
2021/12/24 03:28:58;;;;;;;12.23;10.77;;;;;;;;;;5073641;28;20247;-56
2021/12/24 03:31:24;;;;;;;12.63;10.87;;;;;;;;;;5073736;28;20441;-56
2021/12/24 03:33:53;;;;;;;12.23;10.17;;;;;;;;;;5073819;28;20225;-56
2021/12/24 03:36:20;;;;;;;12.60;10.40;;;;;;;;;;5073773;28;20432;-56
2021/12/24 03:38:46;;;;;;;11.30;10.10;;;;;;;;;;5073679;28;20442;-56
2021/12/24 03:41:11;;;;;;;11.57;10.33;;;;;;;;;;5073373;28;20531;-56
2021/12/24 03:43:38;;;;;;;14.50;12.03;;;;;;;;;;5073629;28;20231;-56
2021/12/24 03:46:09;;;;;;;12.40;10.73;;;;;;;;;;5072741;28;20202;-56
2021/12/24 03:56:27;;;;;;;12.07;10.80;;;;;;;;;;5073362;28;20487;-56
2021/12/24 03:58:53;;;;;;;12.50;10.83;;;;;;;;;;5073130;28;20445;-56
2021/12/24 04:01:20;;;;;;;12.23;10.90;;;;;;;;;;5073134;28;20430;-56
2021/12/24 04:03:46;;;;;;;13.13;11.73;;;;;;;;;;5073296;28;20199;-56
2021/12/24 04:06:12;;;;;;;12.73;10.00;;;;;;;;;;5072972;28;20241;-58
2021/12/24 04:08:38;;;;;;;11.27;10.17;;;;;;;;;;5073038;28;20613;-56
2021/12/24 04:11:05;;;;;;;12.77;11.07;;;;;;;;;;5072939;28;20246;-56
2021/12/24 04:13:31;;;;;;;12.27;10.80;;;;;;;;;;5073241;28;20200;-57
2021/12/24 04:15:57;;;;;;;12.47;10.90;;;;;;;;;;5072941;28;20428;-57
2021/12/24 04:18:40;;;;;;;12.77;10.90;;;;;;;;;;5072860;28;20509;-56
2021/12/24 04:26:36;;;;;;;11.07;9.43;;;;;;;;;;5072806;28;20236;-56
2021/12/24 04:29:02;;;;;;;12.30;11.00;;;;;;;;;;5072617;28;20667;-56
2021/12/24 04:31:39;;;;;;;11.23;10.13;;;;;;;;;;5072717;28;20198;-56
2021/12/24 04:34:06;;;;;;;10.97;9.60;;;;;;;;;;5072483;28;20453;-56
2021/12/24 05:01:16;;;;;;;10.77;9.33;;;;;;;;;;5072169;28;20445;-56
2021/12/24 05:03:44;;;;;;;10.17;9.00;;;;;;;;;;5070399;28;20694;-56
2021/12/24 05:09:00;;;;;;;10.30;9.07;;;;;;;;;;5071752;28;20199;-56
2021/12/24 05:11:26;;;;;;;9.53;8.57;;;;;;;;;;5072229;28;20299;-56
2021/12/24 05:13:53;;;;;;;8.87;7.97;;;;;;;;;;5072161;28;20346;-56
2021/12/24 05:16:24;;;;;;;10.03;8.93;;;;;;;;;;5071955;28;20560;-56
2021/12/24 05:21:42;;;;;;;9.50;8.50;;;;;;;;;;5072143;28;20417;-57
2021/12/24 05:24:12;;;;;;;8.77;7.97;;;;;;;;;;5071937;28;20612;-57
2021/12/24 05:26:38;;;;;;;8.57;7.67;;;;;;;;;;5072099;28;20723;-56
2021/12/24 05:29:06;;;;;;;10.07;8.50;;;;;;;;;;5071835;28;20199;-56
2021/12/24 05:31:33;;;;;;;8.80;7.97;;;;;;;;;;5071989;28;20206;-56
2021/12/24 05:33:59;;;;;;;8.70;7.80;;;;;;;;;;5071887;28;20203;-56
2021/12/24 05:36:26;;;;;;;8.70;7.87;;;;;;;;;;5072057;28;20199;-56
2021/12/24 05:38:53;;;;;;;9.67;8.77;;;;;;;;;;5071716;28;20184;-56
2021/12/24 05:41:21;;;;;;;9.60;8.70;;;;;;;;;;5071709;28;20649;-56
2021/12/24 05:43:47;;;;;;;10.27;9.27;;;;;;;;;;5071935;28;20211;-57
2021/12/24 05:46:13;;;;;;;10.53;9.50;;;;;;;;;;5071706;28;20680;-57
2021/12/24 05:48:39;;;;;;;10.10;9.03;;;;;;;;;;5071722;28;20195;-57
2021/12/24 05:51:06;;;;;;;9.90;8.90;;;;;;;;;;5071732;28;20226;-56
2021/12/24 05:53:32;;;;;;;10.03;9.03;;;;;;;;;;5071795;28;20660;-56
2021/12/24 05:55:59;;;;;;;11.37;9.90;;;;;;;;;;5071513;28;20217;-56
2021/12/24 05:58:25;;;;;;;11.97;10.77;;;;;;;;;;5069760;28;20299;-56
2021/12/24 06:00:52;;;;;;;11.37;10.17;;;;;;;;;;5071633;28;20231;-57
2021/12/24 06:03:18;;;;;;;11.90;10.70;;;;;;;;;;5071623;28;20199;-57
2021/12/24 06:05:44;;;;;;;12.57;11.27;;;;;;;;;;5071451;28;20223;-57
2021/12/24 06:08:11;;;;;;;13.50;12.03;;;;;;;;;;5071488;28;20202;-57
2021/12/24 06:10:37;;;;;;;12.27;10.97;;;;;;;;;;5073958;28;20246;-56
2021/12/24 06:13:05;;;;;;;13.53;11.53;;;;;;;;;;5075207;28;20200;-57
2021/12/24 06:15:41;;;;;;;13.17;11.20;;;;;;;;;;5075379;28;20207;-57
2021/12/24 06:18:12;;;;;;;14.00;11.67;;;;;;;;;;5074894;28;20195;-56
2021/12/24 06:20:39;;;;;;;12.77;11.43;;;;;;;;;;5075051;28;20756;-56
2021/12/24 06:23:07;;;;;;;12.43;11.13;;;;;;;;;;5074584;28;20230;-57
2021/12/24 06:25:33;;;;;;;12.47;11.27;;;;;;;;;;5074853;28;20601;-57
2021/12/24 06:28:00;;;;;;;12.97;11.57;;;;;;;;;;5074802;28;20227;-56
2021/12/24 06:30:29;;;;;;;12.10;10.87;;;;;;;;;;5074665;28;20227;-57
2021/12/24 06:32:55;;;;;;;12.93;10.53;;;;;;;;;;5074552;28;20199;-57
2021/12/24 06:35:21;;;;;;;12.50;11.20;;;;;;;;;;5074683;28;20217;-57
2021/12/24 06:37:47;;;;;;;12.23;10.93;;;;;;;;;;5074796;28;20257;-56
2021/12/24 06:40:13;;;;;;;11.70;10.50;;;;;;;;;;5074230;28;20266;-55
2021/12/24 06:42:39;;;;;;;12.00;10.77;;;;;;;;;;5074591;28;20259;-56
2021/12/24 06:45:05;;;;;;;10.77;9.50;;;;;;;;;;5074527;28;20287;-56
2021/12/24 06:47:33;;;;;;;10.30;9.20;;;;;;;;;;5074468;28;20691;-56
2021/12/24 06:49:59;;;;;;;10.83;9.73;;;;;;;;;;5074336;28;20239;-56
2021/12/24 06:52:24;;;;;;;10.63;9.53;;;;;;;;;;5074441;28;20223;-56
2021/12/24 06:54:50;;;;;;;10.70;9.60;;;;;;;;;;5074465;28;20227;-56
2021/12/24 06:57:19;;;;;;;11.30;10.10;;;;;;;;;;5074044;28;20732;-56
2021/12/24 06:59:45;;;;;;;10.93;9.27;;;;;;;;;;5074375;28;20219;-57
2021/12/24 07:02:11;;;;;;;11.23;10.03;;;;;;;;;;5074257;28;20191;-56
2021/12/24 07:04:38;;;;;;;10.20;9.10;;;;;;;;;;5074042;28;20243;-56
2021/12/24 07:07:04;;;;;;;9.60;8.63;;;;;;;;;;5074100;28;20199;-56
2021/12/24 07:09:30;;;;;;;10.50;9.20;;;;;;;;;;5074189;28;20233;-56
2021/12/24 07:11:56;;;;;;;9.67;8.67;;;;;;;;;;5074043;28;20291;-56
2021/12/24 07:14:25;;;;;;;10.17;8.80;;;;;;;;;;5074024;28;20237;-56
2021/12/24 07:16:51;;;;;;;9.83;8.40;;;;;;;;;;5074051;28;20184;-56
2021/12/24 07:19:17;;;;;;;10.20;9.17;;;;;;;;;;5073987;28;20653;-56
2021/12/24 07:21:45;;;;;;;10.80;9.10;;;;;;;;;;5073162;28;20205;-56
2021/12/24 07:24:11;;;;;;;11.17;9.27;;;;;;;;;;5073518;28;20210;-56
2021/12/24 07:26:37;;;;;;;12.13;10.00;;;;;;;;;;5073842;28;20199;-56
2021/12/24 07:29:03;;;;;;;10.13;9.03;;;;;;;;;;5073789;28;20226;-57
2021/12/24 07:31:29;;;;;;;10.23;9.10;;;;;;;;;;5073895;28;20202;-56
2021/12/24 07:33:55;;;;;;;11.17;9.60;;;;;;;;;;5073681;28;20565;-56
2021/12/24 07:36:21;;;;;;;11.07;9.87;;;;;;;;;;5073508;28;20199;-56
2021/12/24 07:38:48;;;;;;;11.10;10.10;;;;;;;;;;5073839;28;20203;-56
2021/12/24 07:41:15;;;;;;;11.03;9.90;;;;;;;;;;5073457;28;20276;-57
2021/12/24 07:43:41;;;;;;;11.90;10.00;;;;;;;;;;5073631;28;20253;-56
2021/12/24 07:46:07;;;;;;;11.17;10.07;;;;;;;;;;5073291;28;20200;-55
2021/12/24 07:48:43;;;;;;;11.93;10.50;;;;;;;;;;5069982;28;20191;-55
2021/12/24 07:53:35;;;;;;;11.93;10.27;;;;;;;;;;5073460;28;20685;-56
2021/12/24 07:56:02;;;;;;;11.63;10.40;;;;;;;;;;5073323;28;20199;-56
2021/12/24 07:58:28;;;;;;;12.67;10.80;;;;;;;;;;5073053;28;20214;-56
2021/12/24 08:00:54;;;;;;;11.90;10.73;;;;;;;;;;5073100;28;20192;-57
2021/12/24 08:03:20;;;;;;;12.53;10.57;;;;;;;;;;5073230;28;20274;-56
2021/12/24 08:05:48;;;;;;;12.07;10.87;;;;;;;;;;5073216;28;20231;-56
2021/12/24 08:08:15;;;;;;;13.70;10.80;;;;;;;;;;5072863;28;20219;-56
2021/12/24 08:10:41;;;;;;;11.63;10.40;;;;;;;;;;5072683;28;20271;-57
2021/12/24 08:13:09;;;;;;;12.80;11.17;;;;;;;;;;5072899;28;20215;-57
2021/12/24 08:15:35;;;;;;;14.30;10.90;;;;;;;;;;5072761;28;20191;-56
2021/12/24 08:18:01;;;;;;;12.53;10.10;;;;;;;;;;5072874;28;20556;-56
2021/12/24 08:20:27;;;;;;;10.87;9.63;;;;;;;;;;5072697;28;20282;-56
2021/12/24 08:22:54;;;;;;;10.67;9.20;;;;;;;;;;5072653;28;20286;-57
2021/12/24 08:25:20;;;;;;;10.27;9.03;;;;;;;;;;5072537;28;20245;-55
2021/12/24 08:27:47;;;;;;;12.17;9.57;;;;;;;;;;5072678;28;20204;-56
2021/12/24 08:30:14;;;;;;;9.93;8.93;;;;;;;;;;5071393;28;20598;-56
2021/12/24 08:32:42;;;;;;;11.90;8.73;;;;;;;;;;5072115;28;20203;-58
2021/12/24 08:35:09;;;;;;;9.80;8.80;;;;;;;;;;5072485;28;20215;-56
2021/12/24 08:37:35;;;;;;;9.47;8.47;;;;;;;;;;5072412;28;20696;-55
2021/12/24 08:40:01;;;;;;;9.03;8.13;;;;;;;;;;5072127;28;20235;-56
2021/12/24 08:42:28;;;;;;;8.93;7.83;;;;;;;;;;5072392;28;20196;-56
2021/12/24 08:44:54;;;;;;;9.00;7.87;;;;;;;;;;5071903;28;20203;-58
2021/12/24 08:47:21;;;;;;;8.83;7.93;;;;;;;;;;5072133;28;20210;-56
2021/12/24 08:49:47;;;;;;;7.30;6.53;;;;;;;;;;5071834;28;20584;-56
2021/12/24 08:52:13;;;;;;;9.07;7.10;;;;;;;;;;5072168;28;20290;-56
2021/12/24 08:54:39;;;;;;;8.07;6.90;;;;;;;;;;5070331;28;20199;-55
2021/12/24 08:57:05;;;;;;;7.70;6.90;;;;;;;;;;5071713;28;20195;-56
2021/12/24 08:59:31;;;;;;;8.30;6.73;;;;;;;;;;5072136;28;20642;-56
2021/12/24 09:02:02;;;;;;;6.93;6.23;;;;;;;;;;5071890;28;20286;-56
2021/12/24 09:04:30;;;;;;;7.17;6.47;;;;;;;;;;5072007;28;20199;-54
2021/12/24 09:06:56;;;;;;;7.00;6.30;;;;;;;;;;5071628;28;20701;-54
2021/12/24 09:09:22;;;;;;;7.53;6.07;;;;;;;;;;5071945;28;20272;-56
2021/12/24 09:11:49;;;;;;;7.57;6.77;;;;;;;;;;5071967;28;20231;-55
2021/12/24 09:14:17;;;;;;;7.07;6.37;;;;;;;;;;5071513;28;20276;-56
2021/12/24 09:16:44;;;;;;;7.67;6.83;;;;;;;;;;5070042;28;20234;-56
2021/12/24 09:19:14;;;;;;;6.97;6.37;;;;;;;;;;5071921;28;20195;-56
2021/12/24 09:21:41;;;;;;;7.50;6.70;;;;;;;;;;5071900;28;20722;-56
2021/12/24 09:24:08;;;;;;;8.57;6.83;;;;;;;;;;5071979;28;20196;-55
2021/12/24 09:26:35;;;;;;;6.90;6.03;;;;;;;;;;5072166;28;20249;-57
2021/12/24 09:29:03;;;;;;;7.17;6.30;;;;;;;;;;5072058;28;20195;-57
2021/12/24 09:31:29;;;;;;;7.87;6.63;;;;;;;;;;5071868;28;20220;-56
2021/12/24 09:33:55;;;;;;;7.33;5.50;;;;;;;;;;5072019;28;20196;-57
2021/12/24 09:36:25;;;;;;;8.10;5.77;;;;;;;;;;5071804;28;20210;-56
2021/12/24 09:38:53;;;;;;;5.80;5.27;;;;;;;;;;5071819;28;20215;-55
2021/12/24 09:41:19;;;;;;;7.77;6.10;;;;;;;;;;5071454;28;20231;-59
2021/12/24 09:43:45;;;;;;;5.50;4.93;;;;;;;;;;5072011;28;20658;-60
2021/12/24 09:46:12;;;;;;;5.70;5.00;;;;;;;;;;5074737;28;20306;-59
2021/12/24 09:48:38;;;;;;;5.80;5.27;;;;;;;;;;5075762;28;20661;-58
2021/12/24 09:51:04;;;;;;;5.57;5.07;;;;;;;;;;5073362;28;20223;-59
2021/12/24 09:53:30;;;;;;;6.70;5.00;;;;;;;;;;5075389;28;20221;-63
2021/12/24 09:55:57;;;;;;;5.77;4.90;;;;;;;;;;5075325;28;20203;-59
2021/12/24 09:58:23;;;;;;;5.50;4.63;;;;;;;;;;5075222;28;20215;-59
2021/12/24 10:00:49;;;;;;;5.67;5.10;;;;;;;;;;5075388;28;20704;-59
2021/12/24 10:03:27;;;;;;;6.00;5.17;;;;;;;;;;5073428;28;20539;-59
2021/12/24 10:05:54;;;;;;;6.47;5.23;;;;;;;;;;5075352;28;20223;-59
2021/12/24 10:08:21;;;;;;;5.80;5.23;;;;;;;;;;5074802;28;20257;-59
2021/12/24 10:10:50;;;;;;;6.07;5.47;;;;;;;;;;5075218;28;20259;-58
2021/12/24 10:13:35;;;;;;;5.03;4.57;;;;;;;;;;5073082;28;20662;-58
2021/12/24 10:16:02;;;;;;;5.80;4.80;;;;;;;;;;5075025;28;20320;-60
2021/12/24 10:18:29;;;;;;;5.63;5.03;;;;;;;;;;5074828;28;20290;-59
2021/12/24 10:21:03;;;;;;;5.80;5.03;;;;;;;;;;5074789;28;20196;-58
2021/12/24 10:23:43;;;;;;;4.90;4.50;;;;;;;;;;5074894;28;20278;-58
2021/12/24 10:26:19;;;;;;;4.93;4.53;;;;;;;;;;5074603;28;20203;-58
2021/12/24 10:28:51;;;;;;;6.70;5.20;;;;;;;;;;5074938;28;20270;-58
2021/12/24 10:31:17;;;;;;;5.93;4.87;;;;;;;;;;5074410;28;20581;-59
2021/12/24 10:34:03;;;;;;;5.13;4.67;;;;;;;;;;5074879;28;20238;-57
2021/12/24 10:36:29;;;;;;;5.27;4.77;;;;;;;;;;5074233;28;20252;-58
2021/12/24 10:38:55;;;;;;;2.27;2.07;;;;;;;;;;5074641;28;20207;-58
2021/12/24 10:41:21;;;;;;;1.70;1.57;;;;;;;;;;5073683;28;20677;-57
2021/12/24 10:43:47;;;;;;;1.40;1.30;;;;;;;;;;5074466;28;20207;-58
2021/12/24 10:46:15;;;;;;;2.27;1.37;;;;;;;;;;5074362;28;20199;-58
2021/12/24 10:48:57;;;;;;;1.63;1.30;;;;;;;;;;5074441;28;20215;-58
2021/12/24 10:51:52;;;;;;;1.67;1.57;;;;;;;;;;5074268;28;20231;-58
2021/12/24 10:54:09;;;;;;;1.70;1.60;;;;;;;;;;5074282;28;20257;-58
2021/12/24 10:56:35;;;;;;;1.60;1.50;;;;;;;;;;5072964;28;20191;-59
2021/12/24 10:59:02;;;;;;;1.90;1.70;;;;;;;;;;5074123;28;20286;-59
2021/12/24 11:01:29;;;;;;;1.50;1.40;;;;;;;;;;5074533;28;20282;-58
2021/12/24 11:03:55;;;;;;;3.97;3.57;;;;;;;;;;5074295;28;20698;-58
2021/12/24 11:06:22;;;;;;;2.43;2.13;;;;;;;;;;5074041;28;20224;-59
2021/12/24 11:08:53;;;;;;;1.60;1.50;;;;;;;;;;5073799;28;20204;-59
2021/12/24 11:11:20;;;;;;;1.43;1.33;;;;;;;;;;5074196;28;20590;-60
2021/12/24 11:13:47;;;;;;;1.30;1.20;;;;;;;;;;5074307;28;20199;-60
2021/12/24 11:16:16;;;;;;;1.27;1.17;;;;;;;;;;5073962;28;20434;-58
2021/12/24 11:18:46;;;;;;;1.40;1.23;;;;;;;;;;5074077;28;20569;-58
2021/12/24 11:21:13;;;;;;;1.50;1.40;;;;;;;;;;5073747;28;20192;-58
2021/12/24 11:23:40;;;;;;;1.50;1.40;;;;;;;;;;5073927;28;20442;-59
2021/12/24 11:26:07;;;;;;;1.53;1.40;;;;;;;;;;5073664;28;20444;-59
2021/12/24 11:28:34;;;;;;;1.63;1.50;;;;;;;;;;5073750;28;20243;-59
2021/12/24 11:31:01;;;;;;;1.63;1.47;;;;;;;;;;5073500;28;20473;-59
2021/12/24 11:33:28;;;;;;;1.50;1.40;;;;;;;;;;5073406;28;20196;-59
2021/12/24 11:35:56;;;;;;;1.87;1.50;;;;;;;;;;5072997;28;20458;-58
2021/12/24 11:38:23;;;;;;;1.40;1.30;;;;;;;;;;5073420;28;20438;-58
2021/12/24 11:40:50;;;;;;;1.40;1.30;;;;;;;;;;5073477;28;20473;-59
2021/12/24 11:43:19;;;;;;;1.70;1.40;;;;;;;;;;5073782;28;20430;-59
2021/12/24 11:45:45;;;;;;;1.47;1.37;;;;;;;;;;5073399;28;20571;-59
2021/12/24 11:48:11;;;;;;;1.30;1.20;;;;;;;;;;5073193;28;20445;-61
2021/12/24 11:50:37;;;;;;;1.20;1.10;;;;;;;;;;5073401;28;20898;-58
2021/12/24 11:53:07;;;;;;;0.97;0.97;;;;;;;;;;5073716;28;20456;-58
2021/12/24 11:55:35;;;;;;;1.33;1.23;;;;;;;;;;5073469;28;20476;-58
2021/12/24 11:58:03;;;;;;;3.40;3.10;;;;;;;;;;5072562;28;20422;-58
2021/12/24 12:00:30;;;;;;;1.70;1.60;;;;;;;;;;5072894;28;20445;-59
2021/12/24 12:02:56;;;;;;;1.80;1.60;;;;;;;;;;5072637;28;20435;-59
2021/12/24 12:05:29;;;;;;;1.47;1.37;;;;;;;;;;5072731;28;20461;-59
2021/12/24 12:08:10;;;;;;;1.57;1.30;;;;;;;;;;5067594;28;20947;-59
2021/12/24 12:10:50;;;;;;;1.43;1.30;;;;;;;;;;5072175;28;20576;-59
2021/12/24 12:13:35;;;;;;;2.00;1.80;;;;;;;;;;5072768;28;20437;-59
2021/12/24 12:16:01;;;;;;;2.70;2.20;;;;;;;;;;5072584;28;20418;-59
2021/12/24 12:18:29;;;;;;;2.77;2.17;;;;;;;;;;5072770;28;20434;-59
2021/12/24 12:21:08;;;;;;;2.40;2.20;;;;;;;;;;5072681;28;20434;-58
2021/12/24 12:24:56;;;;;;;2.20;2.03;;;;;;;;;;5072667;28;20432;-59
2021/12/24 12:26:34;;;;;;;1.70;1.60;;;;;;;;;;5072274;28;20438;-59
2021/12/24 12:29:17;;;;;;;1.50;1.40;;;;;;;;;;5072335;28;20446;-59
2021/12/24 12:31:43;;;;;;;1.70;1.60;;;;;;;;;;5072279;28;20477;-58
2021/12/24 12:34:24;;;;;;;1.70;1.60;;;;;;;;;;5072220;28;20526;-58
2021/12/24 12:36:51;;;;;;;1.60;1.50;;;;;;;;;;5072249;28;20199;-57
2021/12/24 12:39:26;;;;;;;1.63;1.40;;;;;;;;;;5072317;28;20916;-57
2021/12/24 12:41:53;;;;;;;1.70;1.60;;;;;;;;;;5072278;28;20444;-58
2021/12/24 12:44:19;;;;;;;1.60;1.50;;;;;;;;;;5072341;28;20441;-58
2021/12/24 12:46:47;;;;;;;1.60;1.50;;;;;;;;;;5072374;28;20433;-58
2021/12/24 12:49:16;;;;;;;1.93;1.77;;;;;;;;;;5072284;28;20437;-58
2021/12/24 12:51:52;;;;;;;1.50;1.40;;;;;;;;;;5070696;28;20813;-58
2021/12/24 12:54:43;;;;;;;2.83;2.53;;;;;;;;;;5071983;28;20520;-59
2021/12/24 12:57:14;;;;;;;2.53;2.33;;;;;;;;;;5056489;28;20473;-59
2021/12/24 12:59:41;;;;;;;1.80;1.70;;;;;;;;;;5071802;28;20491;-56
2021/12/24 13:02:07;;;;;;;1.90;1.80;;;;;;;;;;5071554;28;20475;-59
2021/12/24 13:04:33;;;;;;;3.63;2.67;;;;;;;;;;5072139;28;20846;-56
2021/12/24 13:06:59;;;;;;;2.00;1.80;;;;;;;;;;5071864;28;20440;-59
2021/12/24 13:09:32;;;;;;;1.80;1.70;;;;;;;;;;5071719;28;20430;-59
2021/12/24 13:11:58;;;;;;;2.13;1.90;;;;;;;;;;5072122;28;20219;-59
2021/12/24 13:14:26;;;;;;;2.17;1.97;;;;;;;;;;5071872;28;20499;-60
2021/12/24 13:17:04;;;;;;;2.20;2.00;;;;;;;;;;5071895;28;21035;-59
2021/12/24 13:19:58;;;;;;;2.30;2.10;;;;;;;;;;5071003;28;20445;-59
2021/12/24 13:22:36;;;;;;;2.47;1.97;;;;;;;;;;5071629;28;20569;-59
2021/12/24 13:25:06;;;;;;;2.00;1.70;;;;;;;;;;5071781;28;20807;-59
2021/12/24 13:27:34;;;;;;;2.57;2.00;;;;;;;;;;5071600;28;20830;-59
2021/12/24 13:30:08;;;;;;;1.90;1.80;;;;;;;;;;5071661;28;20979;-60
2021/12/24 13:32:37;;;;;;;2.30;2.10;;;;;;;;;;5071660;28;20844;-59
2021/12/24 13:35:03;;;;;;;2.53;2.20;;;;;;;;;;5071799;28;20495;-58
2021/12/24 13:37:30;;;;;;;2.10;2.00;;;;;;;;;;5071520;28;20940;-58
2021/12/24 13:39:56;;;;;;;3.20;2.30;;;;;;;;;;5070981;28;20478;-58
2021/12/24 13:42:22;;;;;;;7.93;4.30;;;;;;;;;;5071423;28;20445;-59
2021/12/24 13:44:49;;;;;;;2.27;2.07;;;;;;;;;;5071642;28;20264;-59
2021/12/24 13:47:40;;;;;;;2.37;2.17;;;;;;;;;;5070149;28;20451;-59
2021/12/24 13:55:22;;;;;;;2.40;2.20;;;;;;;;;;5071374;28;20467;-59
2021/12/24 13:57:52;;;;;;;2.07;1.97;;;;;;;;;;5071636;28;20441;-59
2021/12/24 14:00:19;;;;;;;2.20;2.00;;;;;;;;;;5071296;28;20999;-59
2021/12/24 14:02:51;;;;;;;2.30;2.10;;;;;;;;;;5071450;28;20460;-58
2021/12/24 14:05:19;;;;;;;2.57;2.23;;;;;;;;;;5071218;28;20458;-59
2021/12/24 14:07:47;;;;;;;2.30;2.10;;;;;;;;;;5071288;28;20982;-58
2021/12/24 14:10:20;;;;;;;2.50;2.30;;;;;;;;;;5070973;28;20469;-59
2021/12/24 14:12:46;;;;;;;2.30;2.10;;;;;;;;;;5071507;28;20437;-58
2021/12/24 14:15:14;;;;;;;2.43;2.00;;;;;;;;;;5071299;28;20495;-58
2021/12/24 14:18:30;;;;;;;2.27;2.07;;;;;;;;;;5070109;28;20204;-59
2021/12/24 14:21:44;;;;;;;2.37;2.17;;;;;;;;;;5065265;28;20442;-58
2021/12/24 14:23:26;;;;;;;5.90;5.40;;;;;;;;;;5070817;28;20434;-59
2021/12/24 14:25:55;;;;;;;2.80;2.60;;;;;;;;;;5070922;28;20525;-59
2021/12/24 14:28:22;;;;;;;2.13;2.00;;;;;;;;;;5071122;28;20219;-59
2021/12/24 14:30:48;;;;;;;2.80;2.60;;;;;;;;;;5072082;28;20477;-59
2021/12/24 14:33:14;;;;;;;2.90;2.70;;;;;;;;;;5074913;28;20430;-59
2021/12/24 14:35:44;;;;;;;2.57;2.37;;;;;;;;;;5074574;28;20853;-59
2021/12/24 14:38:15;;;;;;;2.60;2.40;;;;;;;;;;5074302;28;20670;-59
2021/12/24 14:40:41;;;;;;;2.40;2.20;;;;;;;;;;5074244;28;20481;-59
2021/12/24 14:43:10;;;;;;;2.33;2.13;;;;;;;;;;5074387;28;20435;-59
2021/12/24 14:45:37;;;;;;;2.73;2.20;;;;;;;;;;5071085;28;20434;-58
2021/12/24 14:48:04;;;;;;;2.27;2.07;;;;;;;;;;5074413;28;20434;-59
2021/12/24 14:50:31;;;;;;;2.60;2.30;;;;;;;;;;5074281;28;20524;-58
2021/12/24 14:53:13;;;;;;;2.33;2.13;;;;;;;;;;5074255;28;20762;-58
2021/12/24 14:55:40;;;;;;;1.87;1.77;;;;;;;;;;5074234;28;20506;-58
2021/12/24 14:58:06;;;;;;;3.53;2.10;;;;;;;;;;5073973;28;20775;-59
2021/12/24 15:00:34;;;;;;;1.90;1.80;;;;;;;;;;5074010;28;20460;-58
2021/12/24 15:03:05;;;;;;;2.13;1.97;;;;;;;;;;5073944;28;20514;-59
2021/12/24 15:05:33;;;;;;;2.17;1.93;;;;;;;;;;5073853;28;20458;-59
2021/12/24 15:07:59;;;;;;;5.00;3.40;;;;;;;;;;5074042;28;20434;-59
2021/12/24 15:10:27;;;;;;;3.63;3.23;;;;;;;;;;5073599;28;20576;-59
2021/12/24 15:13:02;;;;;;;2.63;2.27;;;;;;;;;;5073809;28;20496;-59
2021/12/24 15:15:29;;;;;;;2.67;2.30;;;;;;;;;;5073828;28;20517;-59
2021/12/24 15:17:55;;;;;;;2.60;2.40;;;;;;;;;;5073989;28;20457;-59
2021/12/24 15:20:22;;;;;;;3.07;2.50;;;;;;;;;;5071583;28;20430;-59
2021/12/24 15:22:48;;;;;;;3.43;3.10;;;;;;;;;;5072054;28;20449;-59
2021/12/24 15:25:14;;;;;;;3.17;2.90;;;;;;;;;;5073715;28;20430;-58
2021/12/24 15:27:42;;;;;;;2.50;2.30;;;;;;;;;;5073302;28;20426;-58
2021/12/24 15:30:09;;;;;;;2.67;2.47;;;;;;;;;;5073278;28;20481;-58
2021/12/24 15:32:35;;;;;;;2.57;2.37;;;;;;;;;;5071295;28;20448;-59
2021/12/24 15:35:02;;;;;;;2.23;2.13;;;;;;;;;;5070001;28;20491;-59
2021/12/24 15:37:28;;;;;;;3.10;2.60;;;;;;;;;;5072829;28;20437;-59
2021/12/24 15:39:54;;;;;;;2.60;2.40;;;;;;;;;;5072091;28;20474;-58
2021/12/24 15:42:20;;;;;;;2.80;2.60;;;;;;;;;;5072712;28;21006;-58
2021/12/24 15:44:48;;;;;;;2.57;2.37;;;;;;;;;;5073511;28;20199;-59
2021/12/24 15:47:15;;;;;;;2.30;2.10;;;;;;;;;;5073288;28;20437;-58
2021/12/24 15:49:41;;;;;;;2.80;2.60;;;;;;;;;;5073348;28;21007;-59
2021/12/24 15:52:07;;;;;;;28.27;22.83;;;;;;;;;;5073156;28;20452;-58
2021/12/24 15:54:33;;;;;;;3.60;3.30;;;;;;;;;;5073276;28;20517;-58
2021/12/24 15:56:59;;;;;;;2.97;2.70;;;;;;;;;;5073218;28;20442;-58
2021/12/24 15:59:25;;;;;;;2.17;2.03;;;;;;;;;;5073023;28;20917;-58
2021/12/24 16:01:53;;;;;;;2.07;1.97;;;;;;;;;;5072817;28;20845;-59
2021/12/24 16:04:19;;;;;;;2.60;2.40;;;;;;;;;;5072604;28;20448;-58
2021/12/24 16:06:45;;;;;;;3.00;2.70;;;;;;;;;;5072766;28;20480;-59
2021/12/24 16:09:11;;;;;;;2.83;2.63;;;;;;;;;;5072642;28;20441;-59
2021/12/24 16:11:37;;;;;;;3.17;2.87;;;;;;;;;;5072848;28;20481;-58
2021/12/24 16:14:03;;;;;;;2.90;2.70;;;;;;;;;;5072750;28;20795;-59
2021/12/24 16:16:29;;;;;;;2.83;2.63;;;;;;;;;;5072531;28;20450;-59
2021/12/24 16:18:56;;;;;;;2.87;2.67;;;;;;;;;;5072591;28;20793;-59